createdAt,value
2018-07-27T00:01:07.889Z,33.40
2018-07-27T00:03:39.771Z,33.30
2018-07-27T00:06:12.004Z,33.30
2018-07-27T00:08:43.970Z,33.30
2018-07-27T00:11:16.135Z,33.30
2018-07-27T00:13:47.756Z,33.20
2018-07-27T00:16:19.603Z,33.20
2018-07-27T00:18:51.323Z,33.20
2018-07-27T00:21:23.998Z,33.10
2018-07-27T00:23:55.703Z,33.10
2018-07-27T00:26:27.730Z,33.10
2018-07-27T00:28:59.592Z,33.10
2018-07-27T00:31:31.762Z,33.00
2018-07-27T00:34:03.622Z,32.90
2018-07-27T00:36:36.601Z,32.80
2018-07-27T00:39:10.830Z,32.90
2018-07-27T00:41:42.723Z,32.80
2018-07-27T00:44:14.491Z,32.80
2018-07-27T00:46:47.094Z,32.80
2018-07-27T00:49:19.190Z,32.80
2018-07-27T00:51:51.094Z,32.80
2018-07-27T00:54:22.813Z,32.80
2018-07-27T00:59:26.630Z,32.70
2018-07-27T01:04:29.578Z,32.70
2018-07-27T01:07:01.635Z,32.70
2018-07-27T01:09:33.379Z,32.60
2018-07-27T01:12:05.494Z,32.60
2018-07-27T01:14:37.322Z,32.60
2018-07-27T01:17:09.518Z,32.50
2018-07-27T01:19:41.503Z,32.50
2018-07-27T01:24:44.394Z,32.50
2018-07-27T01:27:17.458Z,32.50
2018-07-27T01:29:49.079Z,32.50
2018-07-27T01:32:21.193Z,32.50
2018-07-27T01:34:52.829Z,32.50
2018-07-27T01:37:26.057Z,32.50
2018-07-27T01:39:57.596Z,32.40
2018-07-27T01:42:29.621Z,32.30
2018-07-27T01:45:01.595Z,32.30
2018-07-27T01:47:34.678Z,32.40
2018-07-27T01:50:06.562Z,32.50
2018-07-27T01:52:38.752Z,32.40
2018-07-27T01:55:10.724Z,32.40
2018-07-27T01:57:43.131Z,32.40
2018-07-27T02:00:14.923Z,32.40
2018-07-27T02:02:47.261Z,32.40
2018-07-27T02:05:19.158Z,32.40
2018-07-27T02:07:50.962Z,32.50
2018-07-27T02:10:23.558Z,32.50
2018-07-27T02:12:55.771Z,32.40
2018-07-27T02:15:27.801Z,32.50
2018-07-27T02:18:00.136Z,32.50
2018-07-27T02:20:32.023Z,32.50
2018-07-27T02:23:03.713Z,32.60
2018-07-27T02:25:35.423Z,32.50
2018-07-27T02:28:07.273Z,32.50
2018-07-27T02:30:39.141Z,32.60
2018-07-27T02:33:11.267Z,32.80
2018-07-27T02:35:43.272Z,32.80
2018-07-27T02:38:16.103Z,32.90
2018-07-27T02:40:47.903Z,33.00
2018-07-27T02:43:20.392Z,33.00
2018-07-27T02:48:23.075Z,33.10
2018-07-27T02:50:54.922Z,33.10
2018-07-27T02:53:27.135Z,33.20
2018-07-27T02:55:58.991Z,33.30
2018-07-27T02:58:31.095Z,33.40
2018-07-27T03:01:02.959Z,33.50
2018-07-27T03:03:34.863Z,33.50
2018-07-27T03:06:06.560Z,33.50
2018-07-27T03:08:38.934Z,33.60
2018-07-27T03:11:10.720Z,33.70
2018-07-27T03:13:43.050Z,33.70
2018-07-27T03:16:14.800Z,33.80
2018-07-27T03:18:46.707Z,33.90
2018-07-27T03:21:18.410Z,34.00
2018-07-27T03:23:50.338Z,34.10
2018-07-27T03:26:22.179Z,34.10
2018-07-27T03:28:54.975Z,34.30
2018-07-27T03:31:26.732Z,34.50
2018-07-27T03:33:58.508Z,34.50
2018-07-27T03:36:30.508Z,34.40
2018-07-27T03:39:03.515Z,34.60
2018-07-27T03:41:35.119Z,34.80
2018-07-27T03:46:38.079Z,35.10
2018-07-27T03:49:10.034Z,35.10
2018-07-27T03:51:41.877Z,35.30
2018-07-27T03:54:20.654Z,35.30
2018-07-27T03:57:03.074Z,35.50
2018-07-27T03:59:40.430Z,35.70
2018-07-27T04:02:19.600Z,35.80
2018-07-27T04:04:52.557Z,35.90
2018-07-27T04:07:24.698Z,36.00
2018-07-27T04:09:57.062Z,36.20
2018-07-27T04:12:28.778Z,36.40
2018-07-27T04:17:55.606Z,36.50
2018-07-27T04:20:35.597Z,36.80
2018-07-27T04:23:16.730Z,37.00
2018-07-27T04:25:49.081Z,37.40
2018-07-27T04:28:20.990Z,37.60
2018-07-27T04:30:53.315Z,37.50
2018-07-27T04:33:25.328Z,37.80
2018-07-27T04:38:28.849Z,38.20
2018-07-27T04:41:02.934Z,38.50
2018-07-27T04:43:35.099Z,38.80
2018-07-27T04:46:07.260Z,39.00
2018-07-27T04:48:39.448Z,39.40
2018-07-27T04:51:11.242Z,40.50
2018-07-27T04:53:44.043Z,41.00
2018-07-27T04:56:19.896Z,41.80
2018-07-27T04:58:53.403Z,42.50
2018-07-27T05:01:25.334Z,42.90
2018-07-27T05:03:56.971Z,43.10
2018-07-27T05:06:29.048Z,42.70
2018-07-27T05:11:38.397Z,42.60
2018-07-27T05:14:10.067Z,42.40
2018-07-27T05:16:42.099Z,42.50
2018-07-27T05:19:13.966Z,42.80
2018-07-27T05:21:46.107Z,43.60
2018-07-27T05:24:17.986Z,44.00
2018-07-27T05:26:50.763Z,44.70
2018-07-27T05:29:22.561Z,45.30
2018-07-27T05:34:25.316Z,45.70
2018-07-27T05:36:57.374Z,45.50
2018-07-27T05:39:29.158Z,45.00
2018-07-27T05:42:02.374Z,44.80
2018-07-27T05:44:34.041Z,44.40
2018-07-27T05:47:06.028Z,44.30
2018-07-27T05:49:37.843Z,44.30
2018-07-27T05:52:09.779Z,44.40
2018-07-27T05:54:41.593Z,44.30
2018-07-27T05:57:14.222Z,44.50
2018-07-27T05:59:46.648Z,45.10
2018-07-27T06:02:18.570Z,45.80
2018-07-27T06:04:50.839Z,46.00
2018-07-27T06:07:22.814Z,46.60
2018-07-27T06:09:54.559Z,46.90
2018-07-27T06:12:26.629Z,47.00
2018-07-27T06:14:58.519Z,47.30
2018-07-27T06:17:30.519Z,47.50
2018-07-27T06:20:02.473Z,47.50
2018-07-27T06:22:40.674Z,47.00
2018-07-27T06:25:12.630Z,46.60
2018-07-27T06:27:44.466Z,46.40
2018-07-27T06:30:16.156Z,46.30
2018-07-27T06:32:48.178Z,46.40
2018-07-27T06:35:20.395Z,45.80
2018-07-27T06:40:23.593Z,45.80
2018-07-27T06:42:56.566Z,45.70
2018-07-27T06:45:28.329Z,45.40
2018-07-27T06:48:00.362Z,45.40
2018-07-27T06:50:32.299Z,45.80
2018-07-27T06:53:04.434Z,45.90
2018-07-27T06:55:36.439Z,46.40
2018-07-27T06:58:08.890Z,47.10
2018-07-27T07:00:40.567Z,47.00
2018-07-27T07:03:13.206Z,47.60
2018-07-27T07:05:44.963Z,47.70
2018-07-27T07:08:17.177Z,48.20
2018-07-27T07:10:49.001Z,48.00
2018-07-27T07:13:21.179Z,47.40
2018-07-27T07:15:53.078Z,48.20
2018-07-27T07:18:25.224Z,48.10
2018-07-27T07:20:57.456Z,48.40
2018-07-27T07:23:29.493Z,47.40
2018-07-27T07:26:01.783Z,47.20
2018-07-27T07:28:33.798Z,46.80
2018-07-27T07:31:05.722Z,46.80
2018-07-27T07:33:37.950Z,46.40
2018-07-27T07:36:09.816Z,46.60
2018-07-27T07:38:42.067Z,46.00
2018-07-27T07:41:14.027Z,45.60
2018-07-27T07:43:48.104Z,45.40
2018-07-27T07:46:19.985Z,45.50
2018-07-27T07:48:52.035Z,45.50
2018-07-27T07:51:24.106Z,45.40
2018-07-27T07:53:56.223Z,45.30
2018-07-27T07:56:28.119Z,45.30
2018-07-27T07:59:00.311Z,45.00
2018-07-27T08:01:32.423Z,45.10
2018-07-27T08:04:04.535Z,44.80
2018-07-27T08:06:36.341Z,44.70
2018-07-27T08:09:10.627Z,44.60
2018-07-27T08:11:42.351Z,44.70
2018-07-27T08:14:14.349Z,44.50
2018-07-27T08:16:46.271Z,44.30
2018-07-27T08:19:18.429Z,44.20
2018-07-27T08:21:50.398Z,44.40
2018-07-27T08:24:22.662Z,44.40
2018-07-27T08:26:59.413Z,44.40
2018-07-27T08:29:33.662Z,44.40
2018-07-27T08:32:05.474Z,44.30
2018-07-27T08:34:37.822Z,44.50
2018-07-27T08:37:09.897Z,44.50
2018-07-27T08:39:42.992Z,44.40
2018-07-27T08:42:14.924Z,44.50
2018-07-27T08:44:48.178Z,44.60
2018-07-27T08:47:19.860Z,44.50
2018-07-27T08:49:52.415Z,44.60
2018-07-27T08:52:24.167Z,44.60
2018-07-27T08:54:56.443Z,44.50
2018-07-27T08:57:28.138Z,44.50
2018-07-27T09:00:00.037Z,44.50
2018-07-27T09:02:31.823Z,44.70
2018-07-27T09:05:03.826Z,44.70
2018-07-27T09:07:35.794Z,44.80
2018-07-27T09:10:08.512Z,45.00
2018-07-27T09:12:40.273Z,45.00
2018-07-27T09:15:12.347Z,44.80
2018-07-27T09:17:44.167Z,44.80
2018-07-27T09:20:16.285Z,44.70
2018-07-27T09:22:48.097Z,44.70
2018-07-27T09:25:20.020Z,44.50
2018-07-27T09:27:51.549Z,44.50
2018-07-27T09:32:54.369Z,44.30
2018-07-27T09:35:26.664Z,44.40
2018-07-27T09:37:58.913Z,44.40
2018-07-27T09:40:30.848Z,44.60
2018-07-27T09:43:02.559Z,44.60
2018-07-27T09:45:34.970Z,44.60
2018-07-27T09:48:06.588Z,44.60
2018-07-27T09:50:38.539Z,44.50
2018-07-27T09:53:10.337Z,44.60
2018-07-27T09:55:42.658Z,44.50
2018-07-27T09:58:14.554Z,44.30
2018-07-27T10:00:51.061Z,44.20
2018-07-27T10:03:22.725Z,44.20
2018-07-27T10:05:54.481Z,44.30
2018-07-27T10:08:26.290Z,44.40
2018-07-27T10:10:58.211Z,44.40
2018-07-27T10:13:30.082Z,44.40
2018-07-27T10:16:03.742Z,44.40
2018-07-27T10:18:35.724Z,44.30
2018-07-27T10:21:08.378Z,44.20
2018-07-27T10:23:40.147Z,44.10
2018-07-27T10:26:12.244Z,44.20
2018-07-27T10:28:44.174Z,44.20
2018-07-27T10:31:16.172Z,44.30
2018-07-27T10:33:48.049Z,44.40
2018-07-27T10:36:20.135Z,44.50
2018-07-27T10:41:23.128Z,44.40
2018-07-27T10:46:25.983Z,44.20
2018-07-27T10:48:57.770Z,44.30
2018-07-27T10:51:29.793Z,44.30
2018-07-27T10:54:01.663Z,44.20
2018-07-27T10:56:33.914Z,44.20
2018-07-27T10:59:05.807Z,44.40
2018-07-27T11:01:37.925Z,44.40
2018-07-27T11:04:09.811Z,44.40
2018-07-27T11:06:41.791Z,44.40
2018-07-27T11:09:13.297Z,44.30
2018-07-27T11:11:45.182Z,44.20
2018-07-27T11:14:16.993Z,44.20
2018-07-27T11:16:50.436Z,44.30
2018-07-27T11:19:22.319Z,44.30
2018-07-27T11:21:54.291Z,44.30
2018-07-27T11:24:25.979Z,44.20
2018-07-27T11:26:58.061Z,44.10
2018-07-27T11:29:30.246Z,44.10
2018-07-27T11:32:02.247Z,44.10
2018-07-27T11:34:34.020Z,44.00
2018-07-27T11:37:06.081Z,44.00
2018-07-27T11:39:37.961Z,43.90
2018-07-27T11:42:10.182Z,43.90
2018-07-27T11:44:42.055Z,43.90
2018-07-27T11:49:44.992Z,43.90
2018-07-27T11:52:16.951Z,43.80
2018-07-27T11:54:48.641Z,43.80
2018-07-27T11:57:20.665Z,43.70
2018-07-27T12:02:24.230Z,43.80
2018-07-27T12:07:26.862Z,43.70
2018-07-27T12:09:58.677Z,43.70
2018-07-27T12:12:30.771Z,43.70
2018-07-27T12:15:02.821Z,43.60
2018-07-27T12:17:35.338Z,43.60
2018-07-27T12:20:07.106Z,43.60
2018-07-27T12:22:39.194Z,43.60
2018-07-27T12:25:12.298Z,43.60
2018-07-27T12:27:44.332Z,43.60
2018-07-27T12:30:16.177Z,43.60
2018-07-27T12:32:48.378Z,43.50
2018-07-27T12:35:20.301Z,43.40
2018-07-27T12:40:23.560Z,43.40
2018-07-27T12:42:55.622Z,43.40
2018-07-27T12:45:27.542Z,43.30
2018-07-27T12:47:59.498Z,43.30
2018-07-27T12:53:02.759Z,43.20
2018-07-27T12:55:34.647Z,43.10
2018-07-27T12:58:06.789Z,43.00
2018-07-27T13:00:38.574Z,43.00
2018-07-27T13:03:10.769Z,42.90
2018-07-27T13:05:42.482Z,42.90
2018-07-27T13:08:14.418Z,42.90
2018-07-27T13:10:46.068Z,42.90
2018-07-27T13:13:18.077Z,42.80
2018-07-27T13:15:50.132Z,42.70
2018-07-27T13:18:23.687Z,42.60
2018-07-27T13:20:57.150Z,42.70
2018-07-27T13:23:29.299Z,42.70
2018-07-27T13:26:26.375Z,42.60
2018-07-27T13:28:44.150Z,42.40
2018-07-27T13:31:15.872Z,42.40
2018-07-27T13:34:02.763Z,42.40
2018-07-27T13:36:34.824Z,42.30
2018-07-27T13:39:08.263Z,42.20
2018-07-27T13:41:40.053Z,42.20
2018-07-27T13:44:12.619Z,42.00
2018-07-27T13:49:15.653Z,42.00
2018-07-27T13:51:47.438Z,41.90
2018-07-27T13:54:19.664Z,41.90
2018-07-27T13:56:51.314Z,41.90
2018-07-27T13:59:23.375Z,41.80
2018-07-27T14:01:55.255Z,41.80
2018-07-27T14:04:27.329Z,41.60
2018-07-27T14:07:00.199Z,41.60
2018-07-27T14:09:32.151Z,41.50
2018-07-27T14:12:04.046Z,41.40
2018-07-27T14:14:36.231Z,41.30
2018-07-27T14:17:08.021Z,41.30
2018-07-27T14:19:40.422Z,41.20
2018-07-27T14:22:12.150Z,41.00
2018-07-27T14:24:44.002Z,40.90
2018-07-27T14:27:15.902Z,40.80
2018-07-27T14:29:47.754Z,40.80
2018-07-27T14:32:19.442Z,40.70
2018-07-27T14:34:51.486Z,40.70
2018-07-27T14:42:25.542Z,40.40
2018-07-27T14:44:57.871Z,40.40
2018-07-27T14:47:29.833Z,40.30
2018-07-27T14:52:33.089Z,40.20
2018-07-27T14:55:05.335Z,40.10
2018-07-27T15:00:08.514Z,40.00
2018-07-27T15:02:40.106Z,39.90
2018-07-27T15:07:42.738Z,39.80
2018-07-27T15:10:15.293Z,39.70
2018-07-27T15:12:46.986Z,39.70
2018-07-27T15:15:18.848Z,39.60
2018-07-27T15:17:50.799Z,39.50
2018-07-27T15:20:23.582Z,39.40
2018-07-27T15:22:55.220Z,39.50
2018-07-27T15:25:27.193Z,39.40
2018-07-27T15:27:58.946Z,39.30
2018-07-27T15:30:31.013Z,39.30
2018-07-27T15:33:02.864Z,39.30
2018-07-27T15:35:35.215Z,39.30
2018-07-27T15:38:07.282Z,39.30
2018-07-27T15:40:39.290Z,39.20
2018-07-27T15:43:11.204Z,39.10
2018-07-27T15:45:43.259Z,39.10
2018-07-27T15:48:15.264Z,39.10
2018-07-27T15:50:48.127Z,39.10
2018-07-27T15:53:19.893Z,39.10
2018-07-27T15:55:51.906Z,39.10
2018-07-27T15:58:23.650Z,39.10
2018-07-27T16:00:55.859Z,39.10
2018-07-27T16:03:27.840Z,39.10
2018-07-27T16:06:00.134Z,39.00
2018-07-27T16:08:32.134Z,39.00
2018-07-27T16:11:04.551Z,39.00
2018-07-27T16:13:36.559Z,39.00
2018-07-27T16:16:08.651Z,38.90
2018-07-27T16:18:40.611Z,38.90
2018-07-27T16:21:13.418Z,38.90
2018-07-27T16:23:45.310Z,38.90
2018-07-27T16:26:17.443Z,38.80
2018-07-27T16:28:49.503Z,38.80
2018-07-27T16:31:22.482Z,38.80
2018-07-27T16:33:54.390Z,38.70
2018-07-27T16:36:26.271Z,38.70
2018-07-27T16:39:03.460Z,38.60
2018-07-27T16:41:46.702Z,38.60
2018-07-27T16:44:18.949Z,38.60
2018-07-27T16:46:51.272Z,38.50
2018-07-27T16:49:23.200Z,38.50
2018-07-27T16:51:55.321Z,38.50
2018-07-27T16:54:27.912Z,38.50
2018-07-27T16:57:02.653Z,38.40
2018-07-27T16:59:39.350Z,38.50
2018-07-27T17:02:16.160Z,38.40
2018-07-27T17:04:53.240Z,38.40
2018-07-27T17:07:29.121Z,38.40
2018-07-27T17:10:03.834Z,38.30
2018-07-27T17:12:40.297Z,38.30
2018-07-27T17:17:47.107Z,38.20
2018-07-27T17:20:21.317Z,38.20
2018-07-27T17:22:57.667Z,38.20
2018-07-27T17:25:37.426Z,38.20
2018-07-27T17:28:10.554Z,38.20
2018-07-27T17:30:48.159Z,38.10
2018-07-27T17:33:20.670Z,38.10
2018-07-27T17:35:52.549Z,38.10
2018-07-27T17:38:24.876Z,38.10
2018-07-27T17:43:29.746Z,38.00
2018-07-27T17:48:44.271Z,38.10
2018-07-27T17:51:21.367Z,38.10
2018-07-27T17:53:56.603Z,38.10
2018-07-27T17:56:33.362Z,38.10
2018-07-27T17:59:13.596Z,38.00
2018-07-27T18:01:49.048Z,38.10
2018-07-27T18:07:01.223Z,38.00
2018-07-27T18:09:34.560Z,38.10
2018-07-27T18:12:07.111Z,38.00
2018-07-27T18:14:41.291Z,38.00
2018-07-27T18:17:13.917Z,38.00
2018-07-27T18:19:50.914Z,38.00
2018-07-27T18:22:23.962Z,38.00
2018-07-27T18:24:57.043Z,38.00
2018-07-27T18:27:29.348Z,37.90
2018-07-27T18:30:01.490Z,37.90
2018-07-27T18:32:37.294Z,37.90
2018-07-27T18:35:13.586Z,37.90
2018-07-27T18:37:46.113Z,37.90
2018-07-27T18:40:18.538Z,37.80
2018-07-27T18:42:50.394Z,37.80
2018-07-27T18:45:26.978Z,37.80
2018-07-27T18:48:02.526Z,37.80
2018-07-27T18:50:35.671Z,37.70
2018-07-27T18:53:11.997Z,37.60
2018-07-27T18:58:22.973Z,37.70
2018-07-27T19:01:00.246Z,37.60
2018-07-27T19:03:37.947Z,37.60
2018-07-27T19:06:15.454Z,37.60
2018-07-27T19:08:52.390Z,37.60
2018-07-27T19:11:29.613Z,37.60
2018-07-27T19:14:05.766Z,37.50
2018-07-27T19:16:43.774Z,37.50
2018-07-27T19:27:05.757Z,37.50
2018-07-27T19:29:37.461Z,37.50
2018-07-27T19:32:09.335Z,37.50
2018-07-27T19:34:41.344Z,37.50
2018-07-27T19:37:13.631Z,37.50
2018-07-27T19:39:45.522Z,37.40
2018-07-27T19:42:17.624Z,37.40
2018-07-27T19:44:49.511Z,37.30
2018-07-27T19:47:22.023Z,37.30
2018-07-27T19:49:53.955Z,37.30
2018-07-27T19:52:26.007Z,37.20
2018-07-27T19:57:28.913Z,37.20
2018-07-27T20:00:00.830Z,37.20
2018-07-27T20:02:32.967Z,37.10
2018-07-27T20:05:05.126Z,37.20
2018-07-27T20:07:37.202Z,37.10
2018-07-27T20:10:09.549Z,37.10
2018-07-27T20:12:41.339Z,37.10
2018-07-27T20:15:13.277Z,37.10
2018-07-27T20:17:45.318Z,37.10
2018-07-27T20:20:17.254Z,37.10
2018-07-27T20:22:49.322Z,37.00
2018-07-27T20:25:21.082Z,37.00
2018-07-27T20:27:54.758Z,37.00
2018-07-27T20:30:26.438Z,36.90
2018-07-27T20:32:58.406Z,36.80
2018-07-27T20:35:30.221Z,36.80
2018-07-27T20:40:33.367Z,36.80
2018-07-27T20:43:05.407Z,36.70
2018-07-27T20:45:37.643Z,36.70
2018-07-27T20:48:09.822Z,36.70
2018-07-27T20:50:41.607Z,36.70
2018-07-27T20:53:13.687Z,36.70
2018-07-27T20:55:45.370Z,36.70
2018-07-27T21:00:48.005Z,36.60
2018-07-27T21:03:20.338Z,36.70
2018-07-27T21:05:52.155Z,36.60
2018-07-27T21:08:24.375Z,36.60
2018-07-27T21:10:56.325Z,36.50
2018-07-27T21:13:28.290Z,36.50
2018-07-27T21:16:00.034Z,36.60
2018-07-27T21:18:31.995Z,36.50
2018-07-27T21:21:03.743Z,36.50
2018-07-27T21:23:35.678Z,36.40
2018-07-27T21:26:07.657Z,36.40
2018-07-27T21:28:41.114Z,36.30
2018-07-27T21:33:44.136Z,36.30
2018-07-27T21:36:16.026Z,36.30
2018-07-27T21:38:48.301Z,36.40
2018-07-27T21:41:20.280Z,36.30
2018-07-27T21:43:52.543Z,36.30
2018-07-27T21:46:24.434Z,36.20
2018-07-27T21:48:56.595Z,36.20
2018-07-27T21:51:28.515Z,36.20
2018-07-27T21:54:00.635Z,36.20
2018-07-27T21:56:32.611Z,36.20
2018-07-27T21:59:04.667Z,36.20
2018-07-27T22:04:07.494Z,36.10
2018-07-27T22:06:39.438Z,36.10
2018-07-27T22:09:11.954Z,36.10
2018-07-27T22:11:43.830Z,36.10
2018-07-27T22:14:16.182Z,36.10
2018-07-27T22:16:48.039Z,36.10
2018-07-27T22:19:20.065Z,36.10
2018-07-27T22:21:51.938Z,36.10
2018-07-27T22:24:24.186Z,36.10
2018-07-27T22:26:56.034Z,36.00
2018-07-27T22:29:28.754Z,36.00
2018-07-27T22:32:00.657Z,36.00
2018-07-27T22:34:32.674Z,35.90
2018-07-27T22:37:04.542Z,35.90
2018-07-27T22:39:36.730Z,35.90
2018-07-27T22:42:08.557Z,35.90
2018-07-27T22:44:40.264Z,35.90
2018-07-27T22:47:12.028Z,35.80
2018-07-27T22:49:43.983Z,35.80
2018-07-27T22:52:15.646Z,35.90
2018-07-27T22:54:47.707Z,35.90
2018-07-27T22:57:19.677Z,35.90
2018-07-27T22:59:51.827Z,35.90
2018-07-27T23:02:23.679Z,35.90
2018-07-27T23:04:55.850Z,35.90
2018-07-27T23:07:28.522Z,35.90
2018-07-27T23:12:31.058Z,35.80
2018-07-27T23:15:02.994Z,35.80
2018-07-27T23:17:34.866Z,35.80
2018-07-27T23:20:08.854Z,35.80
2018-07-27T23:22:40.791Z,35.70
2018-07-27T23:25:12.507Z,35.70
2018-07-27T23:27:44.194Z,35.70
2018-07-27T23:30:17.129Z,35.70
2018-07-27T23:32:49.149Z,35.60
2018-07-27T23:35:21.146Z,35.60
2018-07-27T23:37:53.102Z,35.60
2018-07-27T23:40:24.759Z,35.70
2018-07-27T23:42:56.443Z,35.70
2018-07-27T23:45:28.466Z,35.50
2018-07-27T23:48:00.344Z,35.40
2018-07-27T23:50:33.053Z,35.30
2018-07-27T23:55:35.518Z,35.30
2018-07-27T23:58:07.350Z,35.30
